createdAt,value
2022-11-12T00:01:04.570Z,11.57
2022-11-12T00:03:33.587Z,12.57
2022-11-12T00:06:01.292Z,13.68
2022-11-12T00:08:29.464Z,14.70
2022-11-12T00:10:57.448Z,13.38
2022-11-12T00:13:25.093Z,15.40
2022-11-12T00:15:52.775Z,13.13
2022-11-12T00:18:20.499Z,13.18
2022-11-12T00:20:49.725Z,14.88
2022-11-12T00:23:17.375Z,14.50
2022-11-12T00:25:45.089Z,19.73
2022-11-12T00:28:12.879Z,13.30
2022-11-12T00:30:41.461Z,15.00
2022-11-12T00:33:09.187Z,12.75
2022-11-12T00:35:37.994Z,12.70
2022-11-12T00:38:06.984Z,13.75
2022-11-12T00:40:34.660Z,13.05
2022-11-12T00:43:02.305Z,10.48
2022-11-12T00:45:29.984Z,12.45
2022-11-12T00:47:58.112Z,12.10
2022-11-12T00:50:25.927Z,14.32
2022-11-12T00:52:53.908Z,11.80
2022-11-12T00:55:22.986Z,12.77
2022-11-12T00:57:50.692Z,14.57
2022-11-12T01:00:20.015Z,14.25
2022-11-12T01:02:51.375Z,13.10
2022-11-12T01:05:20.289Z,11.77
2022-11-12T01:07:54.699Z,11.48
2022-11-12T01:10:24.948Z,13.98
2022-11-12T01:12:52.681Z,15.27
2022-11-12T01:15:20.276Z,11.52
2022-11-12T01:17:47.953Z,15.05
2022-11-12T01:20:15.658Z,13.32
2022-11-12T01:22:43.342Z,14.05
2022-11-12T01:25:11.127Z,13.38
2022-11-12T01:27:40.123Z,12.05
2022-11-12T01:30:08.865Z,12.13
2022-11-12T01:32:37.868Z,14.32
2022-11-12T01:35:06.677Z,13.40
2022-11-12T01:37:34.369Z,13.68
2022-11-12T01:40:02.037Z,10.85
2022-11-12T01:42:32.547Z,11.27
2022-11-12T01:45:01.588Z,13.32
2022-11-12T01:47:31.303Z,11.98
2022-11-12T01:50:06.577Z,12.20
2022-11-12T01:52:37.730Z,10.90
2022-11-12T01:55:10.882Z,11.02
2022-11-12T01:57:42.952Z,9.65
2022-11-12T02:00:14.484Z,12.38
2022-11-12T02:02:46.272Z,11.07
2022-11-12T02:05:15.944Z,9.68
2022-11-12T02:07:46.921Z,11.13
2022-11-12T02:10:15.258Z,11.57
2022-11-12T02:13:01.421Z,10.50
2022-11-12T02:15:30.702Z,13.77
2022-11-12T02:17:58.525Z,11.35
2022-11-12T02:20:26.459Z,17.67
2022-11-12T02:22:55.481Z,9.65
2022-11-12T02:25:25.585Z,13.00
2022-11-12T02:27:55.362Z,11.55
2022-11-12T02:30:33.560Z,9.27
2022-11-12T02:33:01.657Z,9.82
2022-11-12T02:35:29.297Z,13.88
2022-11-12T02:37:58.781Z,13.43
2022-11-12T02:40:26.543Z,13.32
2022-11-12T02:42:54.234Z,8.80
2022-11-12T02:45:22.173Z,9.10
2022-11-12T02:47:49.846Z,10.00
2022-11-12T02:50:18.312Z,10.73
2022-11-12T02:52:46.004Z,11.57
2022-11-12T02:55:14.993Z,8.77
2022-11-12T02:57:42.801Z,10.35
2022-11-12T03:00:13.053Z,13.88
2022-11-12T03:02:42.718Z,8.73
2022-11-12T03:05:11.120Z,11.40
2022-11-12T03:07:38.977Z,9.27
2022-11-12T03:10:07.778Z,10.45
2022-11-12T03:12:36.800Z,8.68
2022-11-12T03:15:04.757Z,9.60
2022-11-12T03:17:32.515Z,8.40
2022-11-12T03:20:00.240Z,9.60
2022-11-12T03:22:27.873Z,9.48
2022-11-12T03:24:55.555Z,10.13
2022-11-12T03:27:23.180Z,9.75
2022-11-12T03:29:52.205Z,10.25
2022-11-12T03:32:19.854Z,11.65
2022-11-12T03:34:49.617Z,10.57
2022-11-12T03:37:19.533Z,7.95
2022-11-12T03:39:47.172Z,11.98
2022-11-12T03:42:14.897Z,11.30
2022-11-12T03:44:42.522Z,12.30
2022-11-12T03:47:11.626Z,6.93
2022-11-12T03:49:39.341Z,9.98
2022-11-12T03:52:06.971Z,7.72
2022-11-12T03:54:34.624Z,9.13
2022-11-12T03:57:02.297Z,12.90
2022-11-12T03:59:29.963Z,7.72
2022-11-12T04:01:57.615Z,10.82
2022-11-12T04:04:47.057Z,8.85
2022-11-12T04:07:32.413Z,9.30
2022-11-12T04:10:00.162Z,7.53
2022-11-12T04:12:45.429Z,12.50
2022-11-12T04:15:13.112Z,9.30
2022-11-12T04:17:58.560Z,8.18
2022-11-12T04:20:45.169Z,7.10
2022-11-12T04:23:12.833Z,9.30
2022-11-12T04:25:58.305Z,9.52
2022-11-12T04:28:26.306Z,10.70
2022-11-12T04:30:53.177Z,9.02
2022-11-12T04:33:20.877Z,7.47
2022-11-12T04:35:49.918Z,9.45
2022-11-12T04:38:17.577Z,8.07
2022-11-12T04:41:02.894Z,9.18
2022-11-12T04:43:48.510Z,8.25
2022-11-12T04:46:16.203Z,8.27
2022-11-12T04:48:43.856Z,8.60
2022-11-12T04:51:26.981Z,11.20
2022-11-12T04:53:54.859Z,11.55
2022-11-12T04:56:22.579Z,10.45
2022-11-12T04:58:50.247Z,7.35
2022-11-12T05:01:17.965Z,7.45
2022-11-12T05:03:45.669Z,8.98
2022-11-12T05:06:28.577Z,8.88
2022-11-12T05:08:56.549Z,8.20
2022-11-12T05:11:24.206Z,7.75
2022-11-12T05:13:51.897Z,7.40
2022-11-12T05:16:19.529Z,10.15
2022-11-12T05:18:47.161Z,8.80
2022-11-12T05:21:34.594Z,8.07
2022-11-12T05:24:04.977Z,9.02
2022-11-12T05:26:32.635Z,8.82
2022-11-12T05:29:02.164Z,7.10
2022-11-12T05:31:32.857Z,8.32
2022-11-12T05:34:00.762Z,10.07
2022-11-12T05:36:29.765Z,9.02
2022-11-12T05:38:57.541Z,9.57
2022-11-12T05:41:25.212Z,8.50
2022-11-12T05:43:52.936Z,9.18
2022-11-12T05:46:20.833Z,11.15
2022-11-12T05:48:48.588Z,9.50
2022-11-12T05:51:16.613Z,7.70
2022-11-12T05:53:45.697Z,8.95
2022-11-12T05:56:13.375Z,10.75
2022-11-12T05:58:41.034Z,10.40
2022-11-12T06:01:08.775Z,8.82
2022-11-12T06:03:36.451Z,8.25
2022-11-12T06:06:04.138Z,8.68
2022-11-12T06:08:31.798Z,8.48
2022-11-12T06:11:00.805Z,9.68
2022-11-12T06:13:28.703Z,10.77
2022-11-12T06:15:57.060Z,10.65
2022-11-12T06:18:25.966Z,7.90
2022-11-12T06:21:11.709Z,10.18
2022-11-12T06:23:39.453Z,11.57
2022-11-12T06:26:08.582Z,17.30
2022-11-12T06:28:36.306Z,10.32
2022-11-12T06:31:04.459Z,9.25
2022-11-12T06:33:32.221Z,7.90
2022-11-12T06:36:03.057Z,9.20
2022-11-12T06:38:31.401Z,8.18
2022-11-12T06:40:59.104Z,9.80
2022-11-12T06:43:30.464Z,7.50
2022-11-12T06:46:00.865Z,6.80
2022-11-12T06:48:29.854Z,7.47
2022-11-12T06:50:58.082Z,8.23
2022-11-12T06:53:26.225Z,9.43
2022-11-12T06:55:53.898Z,7.03
2022-11-12T06:58:21.518Z,8.00
2022-11-12T07:00:50.557Z,9.63
2022-11-12T07:03:18.266Z,11.23
2022-11-12T07:05:45.899Z,9.27
2022-11-12T07:08:13.602Z,11.90
2022-11-12T07:10:41.232Z,8.65
2022-11-12T07:13:08.904Z,9.50
2022-11-12T07:15:36.540Z,8.82
2022-11-12T07:18:05.717Z,11.38
2022-11-12T07:20:33.409Z,7.22
2022-11-12T07:23:01.686Z,8.68
2022-11-12T07:25:29.333Z,8.60
2022-11-12T07:27:56.990Z,9.20
2022-11-12T07:30:24.653Z,10.70
2022-11-12T07:32:52.346Z,7.97
2022-11-12T07:35:21.365Z,8.00
2022-11-12T07:37:49.029Z,8.30
2022-11-12T07:40:16.993Z,10.30
2022-11-12T07:42:44.627Z,7.57
2022-11-12T07:45:12.359Z,8.75
2022-11-12T07:47:40.024Z,9.18
2022-11-12T07:50:08.290Z,9.05
2022-11-12T07:52:37.289Z,10.73
2022-11-12T07:55:07.008Z,9.52
2022-11-12T07:57:34.911Z,8.48
2022-11-12T08:00:02.700Z,9.02
2022-11-12T08:02:30.557Z,7.45
2022-11-12T08:04:58.246Z,9.98
2022-11-12T08:07:26.080Z,10.55
2022-11-12T08:09:55.387Z,11.75
2022-11-12T08:12:23.157Z,10.60
2022-11-12T08:14:50.871Z,12.57
2022-11-12T08:17:18.499Z,11.85
2022-11-12T08:19:46.227Z,11.80
2022-11-12T08:22:13.994Z,9.35
2022-11-12T08:24:41.690Z,9.73
2022-11-12T08:27:10.696Z,11.65
2022-11-12T08:29:38.371Z,9.27
2022-11-12T08:32:06.541Z,13.02
2022-11-12T08:34:35.909Z,13.85
2022-11-12T08:37:03.764Z,8.50
2022-11-12T08:39:31.448Z,8.90
2022-11-12T08:41:59.167Z,10.93
2022-11-12T08:44:28.276Z,9.48
2022-11-12T08:46:55.949Z,16.13
2022-11-12T08:49:23.591Z,10.27
2022-11-12T08:51:51.328Z,8.57
2022-11-12T08:54:19.176Z,9.30
2022-11-12T08:56:46.918Z,11.18
2022-11-12T08:59:14.556Z,17.45
2022-11-12T09:01:43.891Z,7.47
2022-11-12T09:04:11.778Z,9.23
2022-11-12T09:06:39.496Z,9.05
2022-11-12T09:09:07.310Z,10.48
2022-11-12T09:11:34.958Z,6.82
2022-11-12T09:14:02.657Z,8.55
2022-11-12T09:16:30.408Z,8.40
2022-11-12T09:18:59.412Z,10.00
2022-11-12T09:21:27.165Z,7.18
2022-11-12T09:23:55.551Z,9.88
2022-11-12T09:26:23.487Z,9.13
2022-11-12T09:28:52.346Z,10.15
2022-11-12T09:31:20.045Z,14.45
2022-11-12T09:33:47.760Z,10.05
2022-11-12T09:36:17.637Z,7.38
2022-11-12T09:38:45.269Z,8.43
2022-11-12T09:41:21.674Z,11.10
2022-11-12T09:43:52.230Z,8.25
2022-11-12T09:46:29.540Z,8.68
2022-11-12T09:49:03.778Z,8.85
2022-11-12T09:51:35.396Z,10.27
2022-11-12T09:54:05.704Z,6.60
2022-11-12T09:56:33.407Z,9.27
2022-11-12T09:59:01.207Z,9.00
2022-11-12T10:01:44.141Z,7.28
2022-11-12T10:04:37.577Z,8.35
2022-11-12T10:07:13.861Z,9.77
2022-11-12T10:09:52.517Z,10.18
2022-11-12T10:12:33.511Z,13.32
2022-11-12T10:15:35.978Z,6.43
2022-11-12T10:18:09.261Z,8.43
2022-11-12T10:20:42.731Z,14.07
2022-11-12T10:23:19.474Z,8.90
2022-11-12T10:25:49.910Z,10.48
2022-11-12T10:28:28.249Z,5.57
2022-11-12T10:31:02.457Z,8.27
2022-11-12T10:33:32.753Z,7.20
2022-11-12T10:36:16.235Z,11.13
2022-11-12T10:38:49.041Z,6.07
2022-11-12T10:41:23.189Z,8.45
2022-11-12T10:43:59.385Z,6.18
2022-11-12T10:46:29.835Z,5.72
2022-11-12T10:49:01.059Z,6.63
2022-11-12T10:51:32.222Z,9.23
2022-11-12T10:54:29.603Z,10.25
2022-11-12T10:56:57.335Z,6.10
2022-11-12T10:59:25.702Z,12.70
2022-11-12T11:01:58.511Z,7.38
2022-11-12T11:04:31.121Z,5.80
2022-11-12T11:07:01.721Z,5.72
2022-11-12T11:09:31.489Z,6.80
2022-11-12T11:11:59.337Z,9.00
2022-11-12T11:14:33.455Z,8.10
2022-11-12T11:17:04.645Z,6.15
2022-11-12T11:19:38.811Z,7.13
2022-11-12T11:22:39.185Z,6.85
2022-11-12T11:25:21.643Z,6.85
2022-11-12T11:28:02.605Z,7.63
2022-11-12T11:30:30.351Z,6.80
2022-11-12T11:33:22.356Z,7.78
2022-11-12T11:36:03.792Z,8.40
2022-11-12T11:38:41.206Z,7.85
2022-11-12T11:41:30.195Z,6.40
2022-11-12T11:44:13.756Z,7.47
2022-11-12T11:46:52.343Z,6.40
2022-11-12T11:49:36.244Z,8.82
2022-11-12T11:52:15.800Z,7.43
2022-11-12T11:55:00.049Z,8.20
2022-11-12T11:57:34.539Z,7.20
2022-11-12T12:00:12.553Z,6.30
2022-11-12T12:03:05.629Z,6.35
2022-11-12T12:05:42.954Z,6.53
2022-11-12T12:08:14.031Z,7.25
2022-11-12T12:11:07.718Z,8.30
2022-11-12T12:13:52.613Z,8.02
2022-11-12T12:16:46.086Z,9.00
2022-11-12T12:19:27.624Z,6.90
2022-11-12T12:21:57.997Z,6.50
2022-11-12T12:24:30.870Z,6.05
2022-11-12T12:27:03.671Z,7.82
2022-11-12T12:29:38.322Z,6.47
2022-11-12T12:32:15.029Z,6.57
2022-11-12T12:37:18.242Z,9.32
2022-11-12T12:39:53.330Z,6.88
2022-11-12T12:42:24.037Z,5.47
2022-11-12T12:45:04.745Z,5.35
2022-11-12T12:47:37.721Z,6.15
2022-11-12T12:50:08.179Z,6.32
2022-11-12T12:53:03.069Z,11.38
2022-11-12T12:55:42.578Z,5.68
2022-11-12T12:58:26.939Z,6.15
2022-11-12T13:01:00.621Z,5.90
2022-11-12T13:03:55.972Z,9.70
2022-11-12T13:06:29.259Z,4.45
2022-11-12T13:09:01.521Z,6.18
2022-11-12T13:12:06.127Z,6.43
2022-11-12T13:14:52.520Z,7.60
2022-11-12T13:17:48.399Z,5.77
2022-11-12T13:20:40.782Z,5.32
2022-11-12T13:23:33.191Z,6.22
2022-11-12T13:26:45.484Z,8.32
2022-11-12T13:29:24.474Z,6.40
2022-11-12T13:32:27.731Z,7.85
2022-11-12T13:35:16.140Z,6.03
2022-11-12T13:37:45.665Z,7.13
2022-11-12T13:40:16.968Z,5.20
2022-11-12T13:42:52.198Z,5.32
2022-11-12T13:45:22.546Z,6.95
2022-11-12T13:47:50.453Z,6.30
2022-11-12T13:50:21.864Z,4.90
2022-11-12T13:52:50.704Z,5.10
2022-11-12T13:55:20.577Z,5.93
2022-11-12T13:57:51.932Z,6.68
2022-11-12T14:00:28.085Z,5.63
2022-11-12T14:02:58.763Z,5.43
2022-11-12T14:05:28.083Z,6.55
2022-11-12T14:08:17.808Z,6.07
2022-11-12T14:10:55.627Z,5.45
2022-11-12T14:13:43.915Z,5.82
2022-11-12T14:16:28.138Z,5.80
2022-11-12T14:19:15.156Z,7.10
2022-11-12T14:21:42.883Z,5.05
2022-11-12T14:24:13.375Z,6.75
2022-11-12T14:26:44.463Z,4.68
2022-11-12T14:29:19.354Z,5.38
2022-11-12T14:31:47.540Z,6.93
2022-11-12T14:34:22.792Z,5.68
2022-11-12T14:36:50.731Z,6.25
2022-11-12T14:39:18.461Z,7.40
2022-11-12T14:41:49.118Z,5.57
2022-11-12T14:44:22.243Z,5.70
2022-11-12T14:46:53.749Z,4.63
2022-11-12T14:49:29.039Z,7.97
2022-11-12T14:52:04.532Z,5.95
2022-11-12T14:54:36.134Z,7.43
2022-11-12T14:57:05.697Z,5.35
2022-11-12T14:59:35.064Z,6.07
2022-11-12T15:05:00.205Z,6.22
2022-11-12T15:07:30.486Z,6.22
2022-11-12T15:09:58.214Z,5.85
2022-11-12T15:12:28.237Z,5.72
2022-11-12T15:15:08.352Z,5.15
2022-11-12T15:17:38.102Z,4.47
2022-11-12T15:20:15.309Z,7.10
2022-11-12T15:22:50.735Z,4.82
2022-11-12T15:25:22.926Z,7.22
2022-11-12T15:27:51.180Z,5.32
2022-11-12T15:30:24.446Z,5.28
2022-11-12T15:33:08.475Z,6.13
2022-11-12T15:35:38.039Z,5.55
2022-11-12T15:38:08.982Z,5.30
2022-11-12T15:40:44.026Z,5.25
2022-11-12T15:43:15.486Z,7.50
2022-11-12T15:45:44.664Z,8.75
2022-11-12T15:48:13.520Z,7.60
2022-11-12T15:50:41.186Z,7.95
2022-11-12T15:53:08.881Z,10.18
2022-11-12T15:55:38.558Z,11.05
2022-11-12T15:58:07.770Z,9.88
2022-11-12T16:00:37.473Z,12.02
2022-11-12T16:03:14.768Z,8.75
2022-11-12T16:05:42.709Z,8.05
2022-11-12T16:08:10.714Z,8.07
2022-11-12T16:10:39.317Z,9.60
2022-11-12T16:13:08.359Z,12.88
2022-11-12T16:15:36.089Z,9.20
2022-11-12T16:18:03.809Z,12.65
2022-11-12T16:20:34.672Z,12.48
2022-11-12T16:23:02.741Z,13.23
2022-11-12T16:25:32.905Z,11.10
2022-11-12T16:28:01.864Z,10.75
2022-11-12T16:30:32.449Z,10.95
2022-11-12T16:33:01.983Z,15.65
2022-11-12T16:35:30.782Z,13.60
2022-11-12T16:37:59.822Z,14.43
2022-11-12T16:40:29.814Z,15.73
2022-11-12T16:42:57.862Z,11.15
2022-11-12T16:45:33.018Z,16.58
2022-11-12T16:48:00.820Z,15.73
2022-11-12T16:50:29.761Z,12.63
2022-11-12T16:52:58.843Z,13.18
2022-11-12T16:55:26.531Z,20.02
2022-11-12T16:57:54.188Z,13.48
2022-11-12T17:00:22.145Z,12.65
2022-11-12T17:02:53.377Z,16.27
2022-11-12T17:05:23.706Z,13.23
2022-11-12T17:07:56.106Z,13.45
2022-11-12T17:10:25.387Z,12.00
2022-11-12T17:12:53.280Z,12.93
2022-11-12T17:15:21.229Z,12.80
2022-11-12T17:17:48.916Z,12.95
2022-11-12T17:20:17.325Z,10.30
2022-11-12T17:22:45.022Z,15.30
2022-11-12T17:25:12.738Z,12.18
2022-11-12T17:27:41.733Z,14.45
2022-11-12T17:30:11.285Z,11.50
2022-11-12T17:32:39.065Z,17.02
2022-11-12T17:35:07.854Z,12.82
2022-11-12T17:37:35.611Z,12.55
2022-11-12T17:40:03.355Z,14.45
2022-11-12T17:42:31.078Z,11.25
2022-11-12T17:45:00.065Z,11.65
2022-11-12T17:47:28.682Z,12.48
2022-11-12T17:49:56.340Z,13.25
2022-11-12T17:52:24.132Z,13.90
2022-11-12T17:54:51.825Z,15.75
2022-11-12T17:57:19.519Z,11.02
2022-11-12T17:59:47.137Z,17.00
2022-11-12T18:02:16.151Z,13.27
2022-11-12T18:04:43.835Z,18.58
2022-11-12T18:07:11.569Z,12.68
2022-11-12T18:09:39.253Z,14.88
2022-11-12T18:12:07.176Z,12.30
2022-11-12T18:14:35.025Z,15.20
2022-11-12T18:17:02.993Z,15.23
2022-11-12T18:19:32.075Z,14.07
2022-11-12T18:22:02.070Z,14.55
2022-11-12T18:24:29.773Z,12.23
2022-11-12T18:26:57.438Z,13.23
2022-11-12T18:29:25.123Z,14.80
2022-11-12T18:31:52.782Z,14.75
2022-11-12T18:34:20.481Z,12.73
2022-11-12T18:36:49.513Z,14.88
2022-11-12T18:39:17.216Z,12.82
2022-11-12T18:41:44.917Z,12.65
2022-11-12T18:44:12.625Z,13.85
2022-11-12T18:46:40.305Z,13.90
2022-11-12T18:49:08.135Z,13.48
2022-11-12T18:51:36.205Z,13.38
2022-11-12T18:54:05.653Z,15.27
2022-11-12T18:56:33.387Z,11.57
2022-11-12T18:59:01.083Z,13.57
2022-11-12T19:01:28.799Z,17.25
2022-11-12T19:03:57.521Z,15.13
2022-11-12T19:06:26.385Z,14.05
2022-11-12T19:08:59.628Z,13.75
2022-11-12T19:11:28.674Z,13.88
2022-11-12T19:13:57.171Z,16.02
2022-11-12T19:16:25.345Z,13.45
2022-11-12T19:18:53.545Z,14.75
2022-11-12T19:21:23.513Z,14.73
2022-11-12T19:23:54.776Z,16.05
2022-11-12T19:26:24.125Z,14.77
2022-11-12T19:28:53.267Z,12.20
2022-11-12T19:31:23.206Z,14.02
2022-11-12T19:33:51.735Z,13.32
2022-11-12T19:36:22.166Z,13.98
2022-11-12T19:38:54.600Z,17.52
2022-11-12T19:41:22.337Z,13.70
2022-11-12T19:43:50.109Z,13.85
2022-11-12T19:46:19.367Z,14.55
2022-11-12T19:48:47.217Z,14.75
2022-11-12T19:51:15.109Z,15.75
2022-11-12T19:53:45.365Z,15.20
2022-11-12T19:56:16.894Z,14.73
2022-11-12T19:58:46.225Z,15.70
2022-11-12T20:01:16.033Z,14.90
2022-11-12T20:03:45.151Z,14.35
2022-11-12T20:06:14.474Z,15.10
2022-11-12T20:08:42.162Z,13.93
2022-11-12T20:11:10.028Z,15.63
2022-11-12T20:13:37.768Z,14.68
2022-11-12T20:16:09.382Z,16.00
2022-11-12T20:18:37.069Z,15.50
2022-11-12T20:21:07.753Z,16.20
2022-11-12T20:23:36.499Z,15.40
2022-11-12T20:26:05.733Z,16.40
2022-11-12T20:28:34.057Z,15.77
2022-11-12T20:31:03.641Z,15.23
2022-11-12T20:33:31.465Z,17.83
2022-11-12T20:36:04.481Z,18.15
2022-11-12T20:38:36.488Z,14.80
2022-11-12T20:41:05.672Z,14.73
2022-11-12T20:43:33.878Z,18.88
2022-11-12T20:46:01.961Z,15.57
2022-11-12T20:48:30.275Z,14.20
2022-11-12T20:51:22.532Z,17.35
2022-11-12T20:53:58.886Z,16.73
2022-11-12T20:56:29.296Z,19.70
2022-11-12T20:58:57.665Z,15.10
2022-11-12T21:01:27.269Z,19.00
2022-11-12T21:03:55.333Z,16.95
2022-11-12T21:06:24.630Z,16.10
2022-11-12T21:08:54.160Z,18.77
2022-11-12T21:11:23.491Z,19.27
2022-11-12T21:13:51.407Z,19.45
2022-11-12T21:16:19.119Z,18.45
2022-11-12T21:18:46.884Z,17.25
2022-11-12T21:21:16.616Z,16.77
2022-11-12T21:23:45.682Z,19.50
2022-11-12T21:26:16.027Z,20.77
2022-11-12T21:28:44.751Z,21.10
2022-11-12T21:31:14.171Z,16.92
2022-11-12T21:33:41.882Z,21.23
2022-11-12T21:36:15.803Z,17.70
2022-11-12T21:38:44.524Z,17.50
2022-11-12T21:41:15.666Z,19.13
2022-11-12T21:43:44.775Z,16.85
2022-11-12T21:46:15.506Z,18.73
2022-11-12T21:48:43.510Z,21.00
2022-11-12T21:51:13.597Z,20.73
2022-11-12T21:53:43.120Z,20.42
2022-11-12T21:56:12.565Z,20.98
2022-11-12T21:58:41.686Z,20.23
2022-11-12T22:01:10.777Z,17.95
2022-11-12T22:03:39.345Z,20.27
2022-11-12T22:06:08.101Z,17.95
2022-11-12T22:08:36.079Z,20.60
2022-11-12T22:11:05.241Z,21.23
2022-11-12T22:13:33.615Z,20.70
2022-11-12T22:16:07.362Z,18.50
2022-11-12T22:18:35.353Z,22.38
2022-11-12T22:21:05.358Z,18.27
2022-11-12T22:23:35.857Z,20.75
2022-11-12T22:26:04.432Z,21.83
2022-11-12T22:28:32.219Z,20.90
2022-11-12T22:31:06.235Z,19.77
2022-11-12T22:33:34.551Z,18.17
2022-11-12T22:36:03.086Z,21.83
2022-11-12T22:38:35.330Z,20.02
2022-11-12T22:41:04.570Z,19.70
2022-11-12T22:43:32.686Z,25.00
2022-11-12T22:46:10.585Z,20.23
2022-11-12T22:48:38.494Z,23.80
2022-11-12T22:51:07.959Z,22.70
2022-11-12T22:53:35.894Z,19.38
2022-11-12T22:56:04.050Z,22.70
2022-11-12T22:58:31.866Z,18.48
2022-11-12T23:00:59.621Z,20.23
2022-11-12T23:03:31.270Z,20.02
2022-11-12T23:05:59.408Z,18.70
2022-11-12T23:08:27.740Z,20.85
2022-11-12T23:10:55.797Z,20.42
2022-11-12T23:13:26.703Z,20.15
2022-11-12T23:15:54.554Z,20.10
2022-11-12T23:18:22.189Z,20.67
2022-11-12T23:20:51.406Z,17.98
2022-11-12T23:23:19.211Z,18.50
2022-11-12T23:25:46.855Z,21.65
2022-11-12T23:28:14.516Z,20.65
2022-11-12T23:30:48.826Z,18.65
2022-11-12T23:33:16.495Z,21.92
2022-11-12T23:35:44.166Z,17.92
2022-11-12T23:38:13.170Z,15.60
2022-11-12T23:40:40.840Z,16.23
2022-11-12T23:43:08.562Z,14.93
2022-11-12T23:45:37.138Z,15.02
2022-11-12T23:48:05.296Z,15.65
2022-11-12T23:50:32.978Z,14.32
2022-11-12T23:53:00.673Z,21.45
2022-11-12T23:55:29.706Z,13.25
2022-11-12T23:57:57.341Z,14.70
